sensor_id;sensor_type;location;lat;lon;timestamp;pressure;altitude;pressure_sealevel;temperature
64600;BMP280;6553;48.412;9.514;2023-06-24T00:00:09;72190.41;;;24.77
64600;BMP280;6553;48.412;9.514;2023-06-24T00:02:38;72187.09;;;24.77
64600;BMP280;6553;48.412;9.514;2023-06-24T00:05:06;72191.59;;;24.76
64600;BMP280;6553;48.412;9.514;2023-06-24T00:07:34;72193.88;;;24.75
64600;BMP280;6553;48.412;9.514;2023-06-24T00:10:13;72193.19;;;24.77
64600;BMP280;6553;48.412;9.514;2023-06-24T00:12:39;72193.19;;;24.77
64600;BMP280;6553;48.412;9.514;2023-06-24T00:15:07;72205.44;;;24.89
64600;BMP280;6553;48.412;9.514;2023-06-24T00:17:35;72201.72;;;24.86
64600;BMP280;6553;48.412;9.514;2023-06-24T00:20:01;72209.16;;;24.93
64600;BMP280;6553;48.412;9.514;2023-06-24T00:22:29;72207.97;;;24.94
64600;BMP280;6553;48.412;9.514;2023-06-24T00:24:55;72212.38;;;24.96
64600;BMP280;6553;48.412;9.514;2023-06-24T00:27:22;72213.03;;;24.94
64600;BMP280;6553;48.412;9.514;2023-06-24T00:29:48;72197.34;;;24.84
64600;BMP280;6553;48.412;9.514;2023-06-24T00:32:13;72194.78;;;24.79
64600;BMP280;6553;48.412;9.514;2023-06-24T00:34:39;72214.09;;;24.95
64600;BMP280;6553;48.412;9.514;2023-06-24T00:37:12;72216.06;;;24.99
64600;BMP280;6553;48.412;9.514;2023-06-24T00:39:38;72203.72;;;24.90
64600;BMP280;6553;48.412;9.514;2023-06-24T00:42:05;72201.06;;;24.88
64600;BMP280;6553;48.412;9.514;2023-06-24T00:44:31;72198.41;;;24.85
64600;BMP280;6553;48.412;9.514;2023-06-24T00:47:01;72202.25;;;24.86
64600;BMP280;6553;48.412;9.514;2023-06-24T00:49:27;72209.56;;;24.96
64600;BMP280;6553;48.412;9.514;2023-06-24T00:51:53;72216.47;;;25.02
64600;BMP280;6553;48.412;9.514;2023-06-24T00:54:21;72215.41;;;25.01
64600;BMP280;6553;48.412;9.514;2023-06-24T00:56:47;72216.06;;;24.99
64600;BMP280;6553;48.412;9.514;2023-06-24T00:59:16;72212.22;;;24.98
64600;BMP280;6553;48.412;9.514;2023-06-24T01:01:43;72206.78;;;24.96
64600;BMP280;6553;48.412;9.514;2023-06-24T01:04:11;72219.41;;;25.00
64600;BMP280;6553;48.412;9.514;2023-06-24T01:06:37;72205.69;;;24.95
64600;BMP280;6553;48.412;9.514;2023-06-24T01:09:09;72211.81;;;24.95
64600;BMP280;6553;48.412;9.514;2023-06-24T01:11:35;72219.28;;;25.02
64600;BMP280;6553;48.412;9.514;2023-06-24T01:14:00;72223.50;;;25.06
64600;BMP280;6553;48.412;9.514;2023-06-24T01:16:44;72224.06;;;25.07
64600;BMP280;6553;48.412;9.514;2023-06-24T01:19:31;72227.91;;;25.08
64600;BMP280;6553;48.412;9.514;2023-06-24T01:33:16;72142.28;;;24.27
64600;BMP280;6553;48.412;9.514;2023-06-24T01:35:47;72130.88;;;24.21
64600;BMP280;6553;48.412;9.514;2023-06-24T01:38:45;72128.31;;;24.16
64600;BMP280;6553;48.412;9.514;2023-06-24T01:41:16;72123.28;;;24.17
64600;BMP280;6553;48.412;9.514;2023-06-24T01:43:45;72121.28;;;24.12
64600;BMP280;6553;48.412;9.514;2023-06-24T01:46:16;72121.28;;;24.12
64600;BMP280;6553;48.412;9.514;2023-06-24T01:48:44;72118.09;;;24.09
64600;BMP280;6553;48.412;9.514;2023-06-24T01:51:15;72114.25;;;24.08
64600;BMP280;6553;48.412;9.514;2023-06-24T01:53:48;72117.69;;;24.06
64600;BMP280;6553;48.412;9.514;2023-06-24T01:56:16;72112.78;;;24.04
64600;BMP280;6553;48.412;9.514;2023-06-24T01:58:47;72104.13;;;23.99
64600;BMP280;6553;48.412;9.514;2023-06-24T02:01:15;72103.75;;;23.96
64600;BMP280;6553;48.412;9.514;2023-06-24T02:03:42;72101.09;;;23.93
64600;BMP280;6553;48.412;9.514;2023-06-24T02:06:09;72104.28;;;23.96
64600;BMP280;6553;48.412;9.514;2023-06-24T02:08:37;72103.63;;;23.98
64600;BMP280;6553;48.412;9.514;2023-06-24T02:11:04;72100.94;;;23.96
64600;BMP280;6553;48.412;9.514;2023-06-24T02:13:33;72104.81;;;23.97
64600;BMP280;6553;48.412;9.514;2023-06-24T02:16:04;72101.50;;;23.96
64600;BMP280;6553;48.412;9.514;2023-06-24T02:18:35;72099.91;;;23.95
64600;BMP280;6553;48.412;9.514;2023-06-24T02:21:04;72097.91;;;23.90
64600;BMP280;6553;48.412;9.514;2023-06-24T02:23:30;72095.25;;;23.88
64600;BMP280;6553;48.412;9.514;2023-06-24T02:26:00;72095.75;;;23.88
64600;BMP280;6553;48.412;9.514;2023-06-24T02:28:28;72092.03;;;23.85
64600;BMP280;6553;48.412;9.514;2023-06-24T02:30:55;72095.34;;;23.85
64600;BMP280;6553;48.412;9.514;2023-06-24T02:33:22;72089.78;;;23.85
64600;BMP280;6553;48.412;9.514;2023-06-24T02:35:48;72097.59;;;23.85
64600;BMP280;6553;48.412;9.514;2023-06-24T02:38:14;72092.03;;;23.85
64600;BMP280;6553;48.412;9.514;2023-06-24T02:40:40;72085.94;;;23.84
64600;BMP280;6553;48.412;9.514;2023-06-24T02:43:07;72084.88;;;23.83
64600;BMP280;6553;48.412;9.514;2023-06-24T02:45:34;72092.19;;;23.82
64600;BMP280;6553;48.412;9.514;2023-06-24T02:48:00;72083.41;;;23.79
64600;BMP280;6553;48.412;9.514;2023-06-24T02:50:27;72061.09;;;23.58
64600;BMP280;6553;48.412;9.514;2023-06-24T02:52:54;72076.63;;;23.70
64600;BMP280;6553;48.412;9.514;2023-06-24T02:55:26;72073.44;;;23.67
64600;BMP280;6553;48.412;9.514;2023-06-24T02:57:58;72076.75;;;23.67
64600;BMP280;6553;48.412;9.514;2023-06-24T03:00:24;72070.63;;;23.67
64600;BMP280;6553;48.412;9.514;2023-06-24T03:03:14;72068.38;;;23.67
64600;BMP280;6553;48.412;9.514;2023-06-24T03:05:46;72075.03;;;23.69
64600;BMP280;6553;48.412;9.514;2023-06-24T03:08:17;72082.59;;;23.73
64600;BMP280;6553;48.412;9.514;2023-06-24T03:10:45;72069.47;;;23.69
64600;BMP280;6553;48.412;9.514;2023-06-24T03:13:17;72077.28;;;23.68
64600;BMP280;6553;48.412;9.514;2023-06-24T03:15:46;72066.28;;;23.66
64600;BMP280;6553;48.412;9.514;2023-06-24T03:18:12;72063.09;;;23.63
64600;BMP280;6553;48.412;9.514;2023-06-24T03:20:38;72066.38;;;23.63
64600;BMP280;6553;48.412;9.514;2023-06-24T03:23:09;72058.84;;;23.58
64600;BMP280;6553;48.412;9.514;2023-06-24T03:25:36;72062.78;;;23.57
64600;BMP280;6553;48.412;9.514;2023-06-24T03:28:02;72049.25;;;23.49
64600;BMP280;6553;48.412;9.514;2023-06-24T03:30:37;72058.53;;;23.53
64600;BMP280;6553;48.412;9.514;2023-06-24T03:33:03;72050.84;;;23.51
64600;BMP280;6553;48.412;9.514;2023-06-24T03:35:31;72047.28;;;23.45
64600;BMP280;6553;48.412;9.514;2023-06-24T03:38:01;72055.91;;;23.50
64600;BMP280;6553;48.412;9.514;2023-06-24T03:40:29;72053.09;;;23.50
64600;BMP280;6553;48.412;9.514;2023-06-24T03:42:55;72047.69;;;23.48
64600;BMP280;6553;48.412;9.514;2023-06-24T03:45:21;72055.91;;;23.50
64600;BMP280;6553;48.412;9.514;2023-06-24T03:47:47;72055.34;;;23.50
64600;BMP280;6553;48.412;9.514;2023-06-24T03:50:12;72058.44;;;23.55
64600;BMP280;6553;48.412;9.514;2023-06-24T03:52:38;72059.06;;;23.53
64600;BMP280;6553;48.412;9.514;2023-06-24T03:55:06;72058.00;;;23.52
64600;BMP280;6553;48.412;9.514;2023-06-24T03:57:31;72059.06;;;23.53
64600;BMP280;6553;48.412;9.514;2023-06-24T03:59:58;72049.25;;;23.49
64600;BMP280;6553;48.412;9.514;2023-06-24T04:02:24;72048.22;;;23.48
64600;BMP280;6553;48.412;9.514;2023-06-24T04:04:50;72049.38;;;23.47
64600;BMP280;6553;48.412;9.514;2023-06-24T04:07:17;72056.66;;;23.46
64600;BMP280;6553;48.412;9.514;2023-06-24T04:09:55;72048.22;;;23.48
64600;BMP280;6553;48.412;9.514;2023-06-24T04:12:22;72048.22;;;23.48
64600;BMP280;6553;48.412;9.514;2023-06-24T04:14:48;72044.50;;;23.45
64600;BMP280;6553;48.412;9.514;2023-06-24T04:17:14;72049.94;;;23.47
64600;BMP280;6553;48.412;9.514;2023-06-24T04:19:40;72051.09;;;23.46
64600;BMP280;6553;48.412;9.514;2023-06-24T04:22:06;72049.38;;;23.47
64600;BMP280;6553;48.412;9.514;2023-06-24T04:24:32;72048.31;;;23.46
64600;BMP280;6553;48.412;9.514;2023-06-24T04:26:58;72048.84;;;23.46
64600;BMP280;6553;48.412;9.514;2023-06-24T04:29:24;72039.16;;;23.40
64600;BMP280;6553;48.412;9.514;2023-06-24T04:31:49;72040.88;;;23.39
64600;BMP280;6553;48.412;9.514;2023-06-24T04:34:16;72046.75;;;23.44
64600;BMP280;6553;48.412;9.514;2023-06-24T04:36:42;72049.38;;;23.47
64600;BMP280;6553;48.412;9.514;2023-06-24T04:39:08;72038.91;;;23.45
64600;BMP280;6553;48.412;9.514;2023-06-24T04:41:34;72048.22;;;23.48
64600;BMP280;6553;48.412;9.514;2023-06-24T04:44:00;72053.09;;;23.50
64600;BMP280;6553;48.412;9.514;2023-06-24T04:46:25;72058.00;;;23.52
64600;BMP280;6553;48.412;9.514;2023-06-24T04:48:51;72057.50;;;23.52
64600;BMP280;6553;48.412;9.514;2023-06-24T04:51:17;72049.16;;;23.52
64600;BMP280;6553;48.412;9.514;2023-06-24T04:53:43;72054.72;;;23.52
64600;BMP280;6553;48.412;9.514;2023-06-24T04:56:08;72054.72;;;23.52
64600;BMP280;6553;48.412;9.514;2023-06-24T04:58:34;72053.09;;;23.50
64600;BMP280;6553;48.412;9.514;2023-06-24T05:01:00;72058.00;;;23.52
64600;BMP280;6553;48.412;9.514;2023-06-24T05:03:26;72055.34;;;23.50
64600;BMP280;6553;48.412;9.514;2023-06-24T05:05:51;72060.78;;;23.52
64600;BMP280;6553;48.412;9.514;2023-06-24T05:08:17;72061.31;;;23.53
64600;BMP280;6553;48.412;9.514;2023-06-24T05:10:43;72060.28;;;23.52
64600;BMP280;6553;48.412;9.514;2023-06-24T05:13:09;72056.44;;;23.51
64600;BMP280;6553;48.412;9.514;2023-06-24T05:15:35;72076.88;;;23.65
64600;BMP280;6553;48.412;9.514;2023-06-24T05:18:01;72026.91;;;23.28
64600;BMP280;6553;48.412;9.514;2023-06-24T05:20:26;72061.09;;;23.58
64600;BMP280;6553;48.412;9.514;2023-06-24T05:22:54;72058.44;;;23.55
64600;BMP280;6553;48.412;9.514;2023-06-24T05:25:20;72051.94;;;23.52
64600;BMP280;6553;48.412;9.514;2023-06-24T05:27:46;72049.25;;;23.49
64600;BMP280;6553;48.412;9.514;2023-06-24T05:30:12;72061.88;;;23.53
64600;BMP280;6553;48.412;9.514;2023-06-24T05:32:39;72063.47;;;23.55
64600;BMP280;6553;48.412;9.514;2023-06-24T05:35:05;72069.06;;;23.66
64600;BMP280;6553;48.412;9.514;2023-06-24T05:37:31;72075.28;;;23.74
64600;BMP280;6553;48.412;9.514;2023-06-24T05:39:56;72089.38;;;23.82
64600;BMP280;6553;48.412;9.514;2023-06-24T05:42:23;72087.00;;;23.85
64600;BMP280;6553;48.412;9.514;2023-06-24T05:44:49;72098.97;;;23.91
64600;BMP280;6553;48.412;9.514;2023-06-24T05:47:14;72103.19;;;23.95
64600;BMP280;6553;48.412;9.514;2023-06-24T05:49:40;72094.31;;;23.95
64600;BMP280;6553;48.412;9.514;2023-06-24T05:52:06;72106.91;;;23.99
64600;BMP280;6553;48.412;9.514;2023-06-24T05:54:32;72101.75;;;23.91
64600;BMP280;6553;48.412;9.514;2023-06-24T05:56:58;72109.59;;;24.01
64600;BMP280;6553;48.412;9.514;2023-06-24T05:59:24;72111.84;;;24.01
64600;BMP280;6553;48.412;9.514;2023-06-24T06:01:49;72116.09;;;24.05
64600;BMP280;6553;48.412;9.514;2023-06-24T06:04:15;72108.28;;;24.05
64600;BMP280;6553;48.412;9.514;2023-06-24T06:06:41;72114.38;;;24.06
64600;BMP280;6553;48.412;9.514;2023-06-24T06:09:07;72118.75;;;24.07
64600;BMP280;6553;48.412;9.514;2023-06-24T06:11:32;72105.34;;;23.97
64600;BMP280;6553;48.412;9.514;2023-06-24T06:13:58;72111.19;;;24.03
64600;BMP280;6553;48.412;9.514;2023-06-24T06:16:24;72134.19;;;24.22
64600;BMP280;6553;48.412;9.514;2023-06-24T06:18:51;72065.97;;;23.60
64600;BMP280;6553;48.412;9.514;2023-06-24T06:21:16;72045.81;;;23.41
64600;BMP280;6553;48.412;9.514;2023-06-24T06:23:42;72036.63;;;23.35
64600;BMP280;6553;48.412;9.514;2023-06-24T06:26:08;72064.41;;;23.58
64600;BMP280;6553;48.412;9.514;2023-06-24T06:28:34;72008.19;;;23.13
64600;BMP280;6553;48.412;9.514;2023-06-24T06:31:00;72012.31;;;23.09
64600;BMP280;6553;48.412;9.514;2023-06-24T06:33:26;72014.16;;;23.16
64600;BMP280;6553;48.412;9.514;2023-06-24T06:35:51;71998.75;;;23.02
64600;BMP280;6553;48.412;9.514;2023-06-24T06:38:17;72017.50;;;23.17
64600;BMP280;6553;48.412;9.514;2023-06-24T06:40:43;72007.81;;;23.10
64600;BMP280;6553;48.412;9.514;2023-06-24T06:43:09;72016.41;;;23.16
64600;BMP280;6553;48.412;9.514;2023-06-24T06:45:34;71995.19;;;22.96
64600;BMP280;6553;48.412;9.514;2023-06-24T06:48:02;71993.56;;;22.94
64600;BMP280;6553;48.412;9.514;2023-06-24T06:50:31;71992.38;;;22.96
64600;BMP280;6553;48.412;9.514;2023-06-24T06:52:56;71982.94;;;22.84
64600;BMP280;6553;48.412;9.514;2023-06-24T06:55:22;71988.66;;;22.92
64600;BMP280;6553;48.412;9.514;2023-06-24T06:57:48;72009.13;;;23.06
64600;BMP280;6553;48.412;9.514;2023-06-24T07:00:14;72000.47;;;23.01
64600;BMP280;6553;48.412;9.514;2023-06-24T07:02:40;72006.19;;;23.09
64600;BMP280;6553;48.412;9.514;2023-06-24T07:05:06;72005.94;;;23.03
64600;BMP280;6553;48.412;9.514;2023-06-24T07:07:32;72020.16;;;23.19
64600;BMP280;6553;48.412;9.514;2023-06-24T07:09:58;72046.59;;;23.47
64600;BMP280;6553;48.412;9.514;2023-06-24T07:12:24;72050.72;;;23.53
64600;BMP280;6553;48.412;9.514;2023-06-24T07:14:50;72069.06;;;23.66
64600;BMP280;6553;48.412;9.514;2023-06-24T07:17:16;72084.34;;;23.72
64600;BMP280;6553;48.412;9.514;2023-06-24T07:19:42;72084.06;;;23.77
64600;BMP280;6553;48.412;9.514;2023-06-24T07:22:08;72081.16;;;23.80
64600;BMP280;6553;48.412;9.514;2023-06-24T07:24:34;72087.69;;;23.83
64600;BMP280;6553;48.412;9.514;2023-06-24T07:26:59;72090.31;;;23.86
64600;BMP280;6553;48.412;9.514;2023-06-24T07:29:25;72093.66;;;23.86
64600;BMP280;6553;48.412;9.514;2023-06-24T07:31:51;72094.03;;;23.89
64600;BMP280;6553;48.412;9.514;2023-06-24T07:34:17;72102.81;;;23.92
64600;BMP280;6553;48.412;9.514;2023-06-24T07:36:42;72088.31;;;23.92
64600;BMP280;6553;48.412;9.514;2023-06-24T07:39:08;72097.75;;;23.93
64600;BMP280;6553;48.412;9.514;2023-06-24T07:41:34;72108.78;;;23.95
64600;BMP280;6553;48.412;9.514;2023-06-24T07:44:00;72104.28;;;23.96
64600;BMP280;6553;48.412;9.514;2023-06-24T07:46:25;72108.00;;;24.00
64600;BMP280;6553;48.412;9.514;2023-06-24T07:48:53;72109.59;;;24.01
64600;BMP280;6553;48.412;9.514;2023-06-24T07:51:19;72108.94;;;24.03
64600;BMP280;6553;48.412;9.514;2023-06-24T07:53:45;72114.91;;;24.06
64600;BMP280;6553;48.412;9.514;2023-06-24T07:56:11;72108.78;;;24.06
64600;BMP280;6553;48.412;9.514;2023-06-24T07:58:37;72114.25;;;24.08
64600;BMP280;6553;48.412;9.514;2023-06-24T08:01:04;72110.53;;;24.05
64600;BMP280;6553;48.412;9.514;2023-06-24T08:03:30;72111.47;;;24.08
64600;BMP280;6553;48.412;9.514;2023-06-24T08:05:55;72121.41;;;24.10
64600;BMP280;6553;48.412;9.514;2023-06-24T08:08:22;72110.41;;;24.07
64600;BMP280;6553;48.412;9.514;2023-06-24T08:10:48;72114.25;;;24.08
64600;BMP280;6553;48.412;9.514;2023-06-24T08:13:14;72113.72;;;24.08
64600;BMP280;6553;48.412;9.514;2023-06-24T08:15:39;72115.44;;;24.07
64600;BMP280;6553;48.412;9.514;2023-06-24T08:18:05;72114.63;;;24.11
64600;BMP280;6553;48.412;9.514;2023-06-24T08:20:31;72117.31;;;24.14
64600;BMP280;6553;48.412;9.514;2023-06-24T08:22:57;72120.63;;;24.14
64600;BMP280;6553;48.412;9.514;2023-06-24T08:25:22;72124.47;;;24.15
64600;BMP280;6553;48.412;9.514;2023-06-24T08:27:48;72117.69;;;24.06
64600;BMP280;6553;48.412;9.514;2023-06-24T08:30:14;72127.81;;;24.16
64600;BMP280;6553;48.412;9.514;2023-06-24T08:32:41;72120.50;;;24.17
64600;BMP280;6553;48.412;9.514;2023-06-24T08:35:08;72128.75;;;24.19
64600;BMP280;6553;48.412;9.514;2023-06-24T08:37:36;72128.59;;;24.22
64600;BMP280;6553;48.412;9.514;2023-06-24T08:40:02;72126.34;;;24.22
64600;BMP280;6553;48.412;9.514;2023-06-24T08:42:30;72132.72;;;24.28
64600;BMP280;6553;48.412;9.514;2023-06-24T08:44:56;72135.91;;;24.31
64600;BMP280;6553;48.412;9.514;2023-06-24T08:47:24;72142.56;;;24.32
64600;BMP280;6553;48.412;9.514;2023-06-24T08:50:08;72141.50;;;24.31
64600;BMP280;6553;48.412;9.514;2023-06-24T08:52:37;72142.44;;;24.35
64600;BMP280;6553;48.412;9.514;2023-06-24T08:55:06;72136.56;;;24.29
64600;BMP280;6553;48.412;9.514;2023-06-24T08:57:33;72128.06;;;24.21
64600;BMP280;6553;48.412;9.514;2023-06-24T08:59:58;72130.19;;;24.23
64600;BMP280;6553;48.412;9.514;2023-06-24T09:02:24;72129.13;;;24.22
64600;BMP280;6553;48.412;9.514;2023-06-24T09:04:51;72128.06;;;24.21
64600;BMP280;6553;48.412;9.514;2023-06-24T09:07:26;72132.72;;;24.28
64600;BMP280;6553;48.412;9.514;2023-06-24T09:09:53;72123.44;;;24.25
64600;BMP280;6553;48.412;9.514;2023-06-24T09:12:19;72134.44;;;24.27
64600;BMP280;6553;48.412;9.514;2023-06-24T09:14:49;72140.97;;;24.31
64600;BMP280;6553;48.412;9.514;2023-06-24T09:17:16;72149.22;;;24.33
64600;BMP280;6553;48.412;9.514;2023-06-24T09:19:43;72142.97;;;24.35
64600;BMP280;6553;48.412;9.514;2023-06-24T09:22:10;72139.63;;;24.35
64600;BMP280;6553;48.412;9.514;2023-06-24T09:24:47;72142.44;;;24.35
64600;BMP280;6553;48.412;9.514;2023-06-24T09:27:18;72136.31;;;24.34
64600;BMP280;6553;48.412;9.514;2023-06-24T09:29:47;72151.34;;;24.35
64600;BMP280;6553;48.412;9.514;2023-06-24T09:32:14;72142.97;;;24.35
64600;BMP280;6553;48.412;9.514;2023-06-24T09:34:40;72145.22;;;24.35
64600;BMP280;6553;48.412;9.514;2023-06-24T09:37:06;72142.97;;;24.35
64600;BMP280;6553;48.412;9.514;2023-06-24T09:39:40;72145.63;;;24.38
64600;BMP280;6553;48.412;9.514;2023-06-24T09:42:06;72145.22;;;24.35
64600;BMP280;6553;48.412;9.514;2023-06-24T09:44:33;72150.66;;;24.37
64600;BMP280;6553;48.412;9.514;2023-06-24T09:46:59;72146.16;;;24.38
64600;BMP280;6553;48.412;9.514;2023-06-24T09:49:25;72143.91;;;24.39
64600;BMP280;6553;48.412;9.514;2023-06-24T09:51:57;72143.91;;;24.39
64600;BMP280;6553;48.412;9.514;2023-06-24T09:54:26;72143.91;;;24.39
64600;BMP280;6553;48.412;9.514;2023-06-24T09:56:54;72150.00;;;24.39
64600;BMP280;6553;48.412;9.514;2023-06-24T09:59:23;72150.66;;;24.37
64600;BMP280;6553;48.412;9.514;2023-06-24T10:01:53;72143.91;;;24.39
64600;BMP280;6553;48.412;9.514;2023-06-24T10:04:21;72146.28;;;24.36
64600;BMP280;6553;48.412;9.514;2023-06-24T10:06:50;72147.22;;;24.39
64600;BMP280;6553;48.412;9.514;2023-06-24T10:09:16;72148.41;;;24.38
64600;BMP280;6553;48.412;9.514;2023-06-24T10:11:47;72149.47;;;24.39
64600;BMP280;6553;48.412;9.514;2023-06-24T10:14:17;72154.53;;;24.38
64600;BMP280;6553;48.412;9.514;2023-06-24T10:16:44;72147.88;;;24.37
64600;BMP280;6553;48.412;9.514;2023-06-24T10:19:18;72145.06;;;24.37
64600;BMP280;6553;48.412;9.514;2023-06-24T10:21:57;72145.22;;;24.35
64600;BMP280;6553;48.412;9.514;2023-06-24T10:24:38;72152.41;;;24.36
64600;BMP280;6553;48.412;9.514;2023-06-24T10:27:16;72145.22;;;24.35
64600;BMP280;6553;48.412;9.514;2023-06-24T10:29:47;72150.00;;;24.39
64600;BMP280;6553;48.412;9.514;2023-06-24T10:32:13;72144.94;;;24.40
64600;BMP280;6553;48.412;9.514;2023-06-24T10:34:45;72148.13;;;24.43
64600;BMP280;6553;48.412;9.514;2023-06-24T10:40:02;72148.81;;;24.41
64600;BMP280;6553;48.412;9.514;2023-06-24T10:42:39;72152.13;;;24.41
64600;BMP280;6553;48.412;9.514;2023-06-24T10:47:41;72150.00;;;24.39
64600;BMP280;6553;48.412;9.514;2023-06-24T10:50:10;72147.75;;;24.40
64600;BMP280;6553;48.412;9.514;2023-06-24T10:52:42;72152.66;;;24.42
64600;BMP280;6553;48.412;9.514;2023-06-24T10:55:09;72154.25;;;24.43
64600;BMP280;6553;48.412;9.514;2023-06-24T10:57:35;72153.59;;;24.45
64600;BMP280;6553;48.412;9.514;2023-06-24T11:00:03;72153.06;;;24.45
64600;BMP280;6553;48.412;9.514;2023-06-24T11:02:30;72160.78;;;24.47
64600;BMP280;6553;48.412;9.514;2023-06-24T11:05:00;72151.88;;;24.46
64600;BMP280;6553;48.412;9.514;2023-06-24T11:07:29;72154.13;;;24.46
64600;BMP280;6553;48.412;9.514;2023-06-24T11:10:26;72157.44;;;24.46
64600;BMP280;6553;48.412;9.514;2023-06-24T11:12:52;72160.78;;;24.47
64600;BMP280;6553;48.412;9.514;2023-06-24T11:15:18;72157.44;;;24.46
64600;BMP280;6553;48.412;9.514;2023-06-24T11:17:45;72158.09;;;24.44
64600;BMP280;6553;48.412;9.514;2023-06-24T11:20:14;72155.84;;;24.45
64600;BMP280;6553;48.412;9.514;2023-06-24T11:22:41;72153.19;;;24.42
64600;BMP280;6553;48.412;9.514;2023-06-24T11:25:20;72149.72;;;24.44
64600;BMP280;6553;48.412;9.514;2023-06-24T11:27:52;72153.06;;;24.45
64600;BMP280;6553;48.412;9.514;2023-06-24T11:30:19;72156.94;;;24.46
64600;BMP280;6553;48.412;9.514;2023-06-24T11:32:45;72156.94;;;24.46
64600;BMP280;6553;48.412;9.514;2023-06-24T11:35:13;72161.81;;;24.48
64600;BMP280;6553;48.412;9.514;2023-06-24T11:37:46;72146.94;;;24.44
64600;BMP280;6553;48.412;9.514;2023-06-24T11:40:16;72157.44;;;24.46
64600;BMP280;6553;48.412;9.514;2023-06-24T11:42:42;72155.19;;;24.47
64600;BMP280;6553;48.412;9.514;2023-06-24T11:45:12;72159.56;;;24.48
64600;BMP280;6553;48.412;9.514;2023-06-24T11:47:39;72156.78;;;24.48
64600;BMP280;6553;48.412;9.514;2023-06-24T11:50:07;72158.38;;;24.50
64600;BMP280;6553;48.412;9.514;2023-06-24T11:55:03;72157.84;;;24.49
64600;BMP280;6553;48.412;9.514;2023-06-24T11:57:51;72160.66;;;24.49
64600;BMP280;6553;48.412;9.514;2023-06-24T12:00:39;72163.84;;;24.52
64600;BMP280;6553;48.412;9.514;2023-06-24T12:03:09;72159.44;;;24.51
64600;BMP280;6553;48.412;9.514;2023-06-24T12:05:36;72163.28;;;24.52
64600;BMP280;6553;48.412;9.514;2023-06-24T12:08:03;72161.56;;;24.53
64600;BMP280;6553;48.412;9.514;2023-06-24T12:10:31;72167.69;;;24.53
64600;BMP280;6553;48.412;9.514;2023-06-24T12:13:04;72161.56;;;24.53
64600;BMP280;6553;48.412;9.514;2023-06-24T12:15:32;72159.97;;;24.51
64600;BMP280;6553;48.412;9.514;2023-06-24T12:17:58;72162.75;;;24.51
64600;BMP280;6553;48.412;9.514;2023-06-24T12:20:26;72157.84;;;24.49
64600;BMP280;6553;48.412;9.514;2023-06-24T12:22:52;72162.91;;;24.49
64600;BMP280;6553;48.412;9.514;2023-06-24T12:25:18;72159.97;;;24.51
64600;BMP280;6553;48.412;9.514;2023-06-24T12:27:44;72160.66;;;24.49
64600;BMP280;6553;48.412;9.514;2023-06-24T12:30:11;72164.88;;;24.53
64600;BMP280;6553;48.412;9.514;2023-06-24T12:32:37;72165.44;;;24.54
64600;BMP280;6553;48.412;9.514;2023-06-24T12:35:04;72164.34;;;24.53
64600;BMP280;6553;48.412;9.514;2023-06-24T12:37:31;72163.28;;;24.52
64600;BMP280;6553;48.412;9.514;2023-06-24T12:39:59;72156.13;;;24.50
64600;BMP280;6553;48.412;9.514;2023-06-24T12:42:26;72165.44;;;24.54
64600;BMP280;6553;48.412;9.514;2023-06-24T12:44:52;72163.28;;;24.52
64600;BMP280;6553;48.412;9.514;2023-06-24T12:47:18;72159.56;;;24.48
64600;BMP280;6553;48.412;9.514;2023-06-24T12:49:44;72169.03;;;24.49
64600;BMP280;6553;48.412;9.514;2023-06-24T12:52:10;72165.44;;;24.54
64600;BMP280;6553;48.412;9.514;2023-06-24T12:54:36;72163.16;;;24.54
64600;BMP280;6553;48.412;9.514;2023-06-24T12:57:02;72166.47;;;24.55
64600;BMP280;6553;48.412;9.514;2023-06-24T12:59:28;72162.63;;;24.54
64600;BMP280;6553;48.412;9.514;2023-06-24T13:01:53;72158.78;;;24.53
64600;BMP280;6553;48.412;9.514;2023-06-24T13:04:19;72171.94;;;24.57
64600;BMP280;6553;48.412;9.514;2023-06-24T13:06:48;72164.22;;;24.55
64600;BMP280;6553;48.412;9.514;2023-06-24T13:09:13;72170.88;;;24.56
64600;BMP280;6553;48.412;9.514;2023-06-24T13:11:39;72157.72;;;24.52
64600;BMP280;6553;48.412;9.514;2023-06-24T13:14:06;72163.28;;;24.52
64600;BMP280;6553;48.412;9.514;2023-06-24T13:16:31;72157.72;;;24.52
64600;BMP280;6553;48.412;9.514;2023-06-24T13:18:58;72161.03;;;24.52
64600;BMP280;6553;48.412;9.514;2023-06-24T13:21:24;72159.97;;;24.51
64600;BMP280;6553;48.412;9.514;2023-06-24T13:23:50;72155.31;;;24.44
64600;BMP280;6553;48.412;9.514;2023-06-24T13:26:15;72164.34;;;24.53
64600;BMP280;6553;48.412;9.514;2023-06-24T13:28:41;72159.31;;;24.53
64600;BMP280;6553;48.412;9.514;2023-06-24T13:31:07;72162.09;;;24.53
64600;BMP280;6553;48.412;9.514;2023-06-24T13:33:33;72167.03;;;24.55
64600;BMP280;6553;48.412;9.514;2023-06-24T13:35:59;72163.28;;;24.52
64600;BMP280;6553;48.412;9.514;2023-06-24T13:38:25;72164.22;;;24.55
64600;BMP280;6553;48.412;9.514;2023-06-24T13:40:50;72168.22;;;24.54
64600;BMP280;6553;48.412;9.514;2023-06-24T13:43:16;72162.63;;;24.54
64600;BMP280;6553;48.412;9.514;2023-06-24T13:45:42;72158.25;;;24.52
64600;BMP280;6553;48.412;9.514;2023-06-24T13:48:08;72167.56;;;24.56
64600;BMP280;6553;48.412;9.514;2023-06-24T13:50:33;72164.88;;;24.53
64600;BMP280;6553;48.412;9.514;2023-06-24T13:52:59;72160.50;;;24.52
64600;BMP280;6553;48.412;9.514;2023-06-24T13:55:25;72173.66;;;24.56
64600;BMP280;6553;48.412;9.514;2023-06-24T13:57:51;72162.50;;;24.56
64600;BMP280;6553;48.412;9.514;2023-06-24T14:00:17;72163.56;;;24.57
64600;BMP280;6553;48.412;9.514;2023-06-24T14:02:43;72164.09;;;24.58
64600;BMP280;6553;48.412;9.514;2023-06-24T14:05:09;72170.75;;;24.59
64600;BMP280;6553;48.412;9.514;2023-06-24T14:07:35;72170.75;;;24.59
64600;BMP280;6553;48.412;9.514;2023-06-24T14:10:01;72167.41;;;24.58
64600;BMP280;6553;48.412;9.514;2023-06-24T14:12:26;72172.88;;;24.61
64600;BMP280;6553;48.412;9.514;2023-06-24T14:14:52;72168.06;;;24.56
64600;BMP280;6553;48.412;9.514;2023-06-24T14:17:18;72166.91;;;24.58
64600;BMP280;6553;48.412;9.514;2023-06-24T14:19:44;72167.03;;;24.55
64600;BMP280;6553;48.412;9.514;2023-06-24T14:22:09;72169.81;;;24.55
64600;BMP280;6553;48.412;9.514;2023-06-24T14:24:36;72164.09;;;24.58
64600;BMP280;6553;48.412;9.514;2023-06-24T14:27:05;72169.16;;;24.57
64600;BMP280;6553;48.412;9.514;2023-06-24T14:29:32;72168.06;;;24.56
64600;BMP280;6553;48.412;9.514;2023-06-24T14:31:57;72169.16;;;24.57
64600;BMP280;6553;48.412;9.514;2023-06-24T14:34:23;72170.75;;;24.59
64600;BMP280;6553;48.412;9.514;2023-06-24T14:36:49;72169.16;;;24.57
64600;BMP280;6553;48.412;9.514;2023-06-24T14:39:15;72170.22;;;24.58
64600;BMP280;6553;48.412;9.514;2023-06-24T14:41:43;72163.03;;;24.57